sensor_id;sensor_type;location;lat;lon;timestamp;pressure;altitude;pressure_sealevel;temperature
79488;BMP180;68949;53.176;18.088;2023-07-02T00:00:07;99131.80;;;
79488;BMP180;68949;53.176;18.088;2023-07-02T00:03:00;99137.00;;;
79488;BMP180;68949;53.176;18.088;2023-07-02T00:05:27;99140.60;;;
79488;BMP180;68949;53.176;18.088;2023-07-02T00:07:54;99125.00;;;
79488;BMP180;68949;53.176;18.088;2023-07-02T00:10:21;99121.60;;;
79488;BMP180;68949;53.176;18.088;2023-07-02T00:12:48;99132.00;;;
79488;BMP180;68949;53.176;18.088;2023-07-02T00:15:14;99129.20;;;
79488;BMP180;68949;53.176;18.088;2023-07-02T00:17:41;99134.40;;;
79488;BMP180;68949;53.176;18.088;2023-07-02T00:20:10;99133.20;;;
79488;BMP180;68949;53.176;18.088;2023-07-02T00:22:43;99139.00;;;
79488;BMP180;68949;53.176;18.088;2023-07-02T00:25:13;99146.20;;;
79488;BMP180;68949;53.176;18.088;2023-07-02T00:27:40;99146.20;;;
79488;BMP180;68949;53.176;18.088;2023-07-02T00:30:08;99149.00;;;
79488;BMP180;68949;53.176;18.088;2023-07-02T00:32:35;99144.20;;;
79488;BMP180;68949;53.176;18.088;2023-07-02T00:35:03;99145.20;;;
79488;BMP180;68949;53.176;18.088;2023-07-02T00:37:29;99144.20;;;
79488;BMP180;68949;53.176;18.088;2023-07-02T00:39:57;99141.20;;;
79488;BMP180;68949;53.176;18.088;2023-07-02T00:42:24;99136.80;;;
79488;BMP180;68949;53.176;18.088;2023-07-02T00:44:53;99140.20;;;
79488;BMP180;68949;53.176;18.088;2023-07-02T00:47:23;99130.00;;;
79488;BMP180;68949;53.176;18.088;2023-07-02T00:49:50;99131.00;;;
79488;BMP180;68949;53.176;18.088;2023-07-02T00:52:17;99133.60;;;
79488;BMP180;68949;53.176;18.088;2023-07-02T00:54:47;99131.40;;;
79488;BMP180;68949;53.176;18.088;2023-07-02T00:57:13;99136.80;;;
79488;BMP180;68949;53.176;18.088;2023-07-02T00:59:41;99132.20;;;
79488;BMP180;68949;53.176;18.088;2023-07-02T01:02:08;99128.60;;;
79488;BMP180;68949;53.176;18.088;2023-07-02T01:04:35;99120.80;;;
79488;BMP180;68949;53.176;18.088;2023-07-02T01:07:03;99120.40;;;
79488;BMP180;68949;53.176;18.088;2023-07-02T01:09:36;99126.60;;;
79488;BMP180;68949;53.176;18.088;2023-07-02T01:12:07;99127.40;;;
79488;BMP180;68949;53.176;18.088;2023-07-02T01:14:40;99129.20;;;
79488;BMP180;68949;53.176;18.088;2023-07-02T01:17:08;99124.20;;;
79488;BMP180;68949;53.176;18.088;2023-07-02T01:19:47;99123.40;;;
79488;BMP180;68949;53.176;18.088;2023-07-02T01:22:23;99135.00;;;
79488;BMP180;68949;53.176;18.088;2023-07-02T01:24:51;99139.20;;;
79488;BMP180;68949;53.176;18.088;2023-07-02T01:27:20;99134.20;;;
79488;BMP180;68949;53.176;18.088;2023-07-02T01:29:51;99132.20;;;
79488;BMP180;68949;53.176;18.088;2023-07-02T01:32:19;99127.20;;;
79488;BMP180;68949;53.176;18.088;2023-07-02T01:34:46;99126.60;;;
79488;BMP180;68949;53.176;18.088;2023-07-02T01:37:16;99131.60;;;
79488;BMP180;68949;53.176;18.088;2023-07-02T01:39:46;99128.80;;;
79488;BMP180;68949;53.176;18.088;2023-07-02T01:42:18;99129.80;;;
79488;BMP180;68949;53.176;18.088;2023-07-02T01:44:48;99128.60;;;
79488;BMP180;68949;53.176;18.088;2023-07-02T01:47:17;99128.00;;;
79488;BMP180;68949;53.176;18.088;2023-07-02T01:49:46;99127.80;;;
79488;BMP180;68949;53.176;18.088;2023-07-02T01:52:13;99130.40;;;
79488;BMP180;68949;53.176;18.088;2023-07-02T01:54:39;99134.80;;;
79488;BMP180;68949;53.176;18.088;2023-07-02T01:57:06;99135.80;;;
79488;BMP180;68949;53.176;18.088;2023-07-02T01:59:33;99132.00;;;
79488;BMP180;68949;53.176;18.088;2023-07-02T02:02:00;99124.80;;;
79488;BMP180;68949;53.176;18.088;2023-07-02T02:04:26;99125.80;;;
79488;BMP180;68949;53.176;18.088;2023-07-02T02:06:55;99116.20;;;
79488;BMP180;68949;53.176;18.088;2023-07-02T02:09:22;99117.40;;;
79488;BMP180;68949;53.176;18.088;2023-07-02T02:11:50;99115.80;;;
79488;BMP180;68949;53.176;18.088;2023-07-02T02:14:18;99113.40;;;
79488;BMP180;68949;53.176;18.088;2023-07-02T02:16:45;99109.60;;;
79488;BMP180;68949;53.176;18.088;2023-07-02T02:19:12;99111.20;;;
79488;BMP180;68949;53.176;18.088;2023-07-02T02:21:40;99110.00;;;
79488;BMP180;68949;53.176;18.088;2023-07-02T02:24:07;99106.00;;;
79488;BMP180;68949;53.176;18.088;2023-07-02T02:26:35;99109.20;;;
79488;BMP180;68949;53.176;18.088;2023-07-02T02:29:04;99109.80;;;
79488;BMP180;68949;53.176;18.088;2023-07-02T02:31:31;99111.00;;;
79488;BMP180;68949;53.176;18.088;2023-07-02T02:33:58;99113.80;;;
79488;BMP180;68949;53.176;18.088;2023-07-02T02:36:25;99105.60;;;
79488;BMP180;68949;53.176;18.088;2023-07-02T02:38:52;99107.20;;;
79488;BMP180;68949;53.176;18.088;2023-07-02T02:41:19;99115.60;;;
79488;BMP180;68949;53.176;18.088;2023-07-02T02:43:48;99115.20;;;
79488;BMP180;68949;53.176;18.088;2023-07-02T02:46:21;99123.00;;;
79488;BMP180;68949;53.176;18.088;2023-07-02T02:48:49;99124.20;;;
79488;BMP180;68949;53.176;18.088;2023-07-02T02:51:16;99125.80;;;
79488;BMP180;68949;53.176;18.088;2023-07-02T02:53:43;99116.40;;;
79488;BMP180;68949;53.176;18.088;2023-07-02T02:56:09;99118.60;;;
79488;BMP180;68949;53.176;18.088;2023-07-02T02:58:36;99118.40;;;
79488;BMP180;68949;53.176;18.088;2023-07-02T03:01:03;99116.80;;;
79488;BMP180;68949;53.176;18.088;2023-07-02T03:03:40;99119.40;;;
79488;BMP180;68949;53.176;18.088;2023-07-02T03:06:13;99123.60;;;
79488;BMP180;68949;53.176;18.088;2023-07-02T03:08:41;99119.00;;;
79488;BMP180;68949;53.176;18.088;2023-07-02T03:11:08;99122.20;;;
79488;BMP180;68949;53.176;18.088;2023-07-02T03:13:34;99115.40;;;
79488;BMP180;68949;53.176;18.088;2023-07-02T03:16:01;99109.00;;;
79488;BMP180;68949;53.176;18.088;2023-07-02T03:18:28;99116.00;;;
79488;BMP180;68949;53.176;18.088;2023-07-02T03:20:54;99114.60;;;
79488;BMP180;68949;53.176;18.088;2023-07-02T03:23:21;99121.60;;;
79488;BMP180;68949;53.176;18.088;2023-07-02T03:25:48;99117.60;;;
79488;BMP180;68949;53.176;18.088;2023-07-02T03:28:15;99114.80;;;
79488;BMP180;68949;53.176;18.088;2023-07-02T03:30:41;99115.20;;;
79488;BMP180;68949;53.176;18.088;2023-07-02T03:33:09;99118.00;;;
79488;BMP180;68949;53.176;18.088;2023-07-02T03:35:36;99113.80;;;
79488;BMP180;68949;53.176;18.088;2023-07-02T03:38:04;99112.60;;;
79488;BMP180;68949;53.176;18.088;2023-07-02T03:40:32;99106.40;;;
79488;BMP180;68949;53.176;18.088;2023-07-02T03:42:59;99110.40;;;
79488;BMP180;68949;53.176;18.088;2023-07-02T03:45:26;99110.40;;;
79488;BMP180;68949;53.176;18.088;2023-07-02T03:47:52;99111.40;;;
79488;BMP180;68949;53.176;18.088;2023-07-02T03:50:19;99113.20;;;
79488;BMP180;68949;53.176;18.088;2023-07-02T03:52:46;99114.00;;;
79488;BMP180;68949;53.176;18.088;2023-07-02T03:55:13;99113.40;;;
79488;BMP180;68949;53.176;18.088;2023-07-02T03:57:39;99115.20;;;
79488;BMP180;68949;53.176;18.088;2023-07-02T04:00:07;99111.80;;;
79488;BMP180;68949;53.176;18.088;2023-07-02T04:02:41;99112.60;;;
79488;BMP180;68949;53.176;18.088;2023-07-02T04:05:08;99110.80;;;
79488;BMP180;68949;53.176;18.088;2023-07-02T04:07:35;99112.40;;;
79488;BMP180;68949;53.176;18.088;2023-07-02T04:10:02;99107.40;;;
79488;BMP180;68949;53.176;18.088;2023-07-02T04:12:30;99106.40;;;
79488;BMP180;68949;53.176;18.088;2023-07-02T04:14:57;99102.60;;;
79488;BMP180;68949;53.176;18.088;2023-07-02T04:17:24;99106.40;;;
79488;BMP180;68949;53.176;18.088;2023-07-02T04:19:54;99106.60;;;
79488;BMP180;68949;53.176;18.088;2023-07-02T04:22:21;99103.00;;;
79488;BMP180;68949;53.176;18.088;2023-07-02T04:24:48;99094.80;;;
79488;BMP180;68949;53.176;18.088;2023-07-02T04:27:16;99099.60;;;
79488;BMP180;68949;53.176;18.088;2023-07-02T04:29:45;99089.80;;;
79488;BMP180;68949;53.176;18.088;2023-07-02T04:32:12;99094.00;;;
79488;BMP180;68949;53.176;18.088;2023-07-02T04:34:39;99094.60;;;
79488;BMP180;68949;53.176;18.088;2023-07-02T04:37:06;99098.20;;;
79488;BMP180;68949;53.176;18.088;2023-07-02T04:39:32;99102.80;;;
79488;BMP180;68949;53.176;18.088;2023-07-02T04:42:00;99095.20;;;
79488;BMP180;68949;53.176;18.088;2023-07-02T04:44:27;99096.00;;;
79488;BMP180;68949;53.176;18.088;2023-07-02T04:47:01;99094.00;;;
79488;BMP180;68949;53.176;18.088;2023-07-02T04:49:28;99103.80;;;
79488;BMP180;68949;53.176;18.088;2023-07-02T04:51:55;99101.60;;;
79488;BMP180;68949;53.176;18.088;2023-07-02T04:54:22;99111.60;;;
79488;BMP180;68949;53.176;18.088;2023-07-02T04:56:49;99108.40;;;
79488;BMP180;68949;53.176;18.088;2023-07-02T04:59:16;99113.40;;;
79488;BMP180;68949;53.176;18.088;2023-07-02T05:01:43;99119.00;;;
79488;BMP180;68949;53.176;18.088;2023-07-02T05:04:11;99128.40;;;
79488;BMP180;68949;53.176;18.088;2023-07-02T05:06:38;99135.40;;;
79488;BMP180;68949;53.176;18.088;2023-07-02T05:09:05;99144.00;;;
79488;BMP180;68949;53.176;18.088;2023-07-02T05:11:31;99147.80;;;
79488;BMP180;68949;53.176;18.088;2023-07-02T05:13:58;99152.00;;;
79488;BMP180;68949;53.176;18.088;2023-07-02T05:16:25;99164.00;;;
79488;BMP180;68949;53.176;18.088;2023-07-02T05:18:51;99185.20;;;
79488;BMP180;68949;53.176;18.088;2023-07-02T05:21:18;99174.00;;;
79488;BMP180;68949;53.176;18.088;2023-07-02T05:23:45;99152.20;;;
79488;BMP180;68949;53.176;18.088;2023-07-02T05:26:12;99154.20;;;
79488;BMP180;68949;53.176;18.088;2023-07-02T05:28:38;99156.80;;;
79488;BMP180;68949;53.176;18.088;2023-07-02T05:31:05;99162.40;;;
79488;BMP180;68949;53.176;18.088;2023-07-02T05:33:32;99160.60;;;
79488;BMP180;68949;53.176;18.088;2023-07-02T05:35:59;99163.60;;;
79488;BMP180;68949;53.176;18.088;2023-07-02T05:38:26;99170.40;;;
79488;BMP180;68949;53.176;18.088;2023-07-02T05:40:53;99174.00;;;
79488;BMP180;68949;53.176;18.088;2023-07-02T05:43:19;99176.20;;;
79488;BMP180;68949;53.176;18.088;2023-07-02T05:45:46;99175.00;;;
79488;BMP180;68949;53.176;18.088;2023-07-02T05:48:13;99183.80;;;
79488;BMP180;68949;53.176;18.088;2023-07-02T05:50:39;99181.00;;;
79488;BMP180;68949;53.176;18.088;2023-07-02T05:53:06;99178.20;;;
79488;BMP180;68949;53.176;18.088;2023-07-02T05:55:33;99181.60;;;
79488;BMP180;68949;53.176;18.088;2023-07-02T05:57:59;99174.80;;;
79488;BMP180;68949;53.176;18.088;2023-07-02T06:00:29;99180.00;;;
79488;BMP180;68949;53.176;18.088;2023-07-02T06:02:56;99178.40;;;
79488;BMP180;68949;53.176;18.088;2023-07-02T06:05:22;99180.40;;;
79488;BMP180;68949;53.176;18.088;2023-07-02T06:07:49;99178.80;;;
79488;BMP180;68949;53.176;18.088;2023-07-02T06:10:15;99174.00;;;
79488;BMP180;68949;53.176;18.088;2023-07-02T06:12:43;99158.20;;;
79488;BMP180;68949;53.176;18.088;2023-07-02T06:15:11;99155.80;;;
79488;BMP180;68949;53.176;18.088;2023-07-02T06:17:37;99169.00;;;
79488;BMP180;68949;53.176;18.088;2023-07-02T06:20:06;99172.20;;;
79488;BMP180;68949;53.176;18.088;2023-07-02T06:22:32;99170.80;;;
79488;BMP180;68949;53.176;18.088;2023-07-02T06:24:59;99165.40;;;
79488;BMP180;68949;53.176;18.088;2023-07-02T06:27:26;99179.00;;;
79488;BMP180;68949;53.176;18.088;2023-07-02T06:29:53;99176.60;;;
79488;BMP180;68949;53.176;18.088;2023-07-02T06:32:19;99180.80;;;
79488;BMP180;68949;53.176;18.088;2023-07-02T06:34:46;99182.20;;;
79488;BMP180;68949;53.176;18.088;2023-07-02T06:37:13;99168.80;;;
79488;BMP180;68949;53.176;18.088;2023-07-02T06:39:39;99175.20;;;
79488;BMP180;68949;53.176;18.088;2023-07-02T06:42:06;99175.40;;;
79488;BMP180;68949;53.176;18.088;2023-07-02T06:44:38;99161.80;;;
79488;BMP180;68949;53.176;18.088;2023-07-02T06:47:05;99165.20;;;
79488;BMP180;68949;53.176;18.088;2023-07-02T06:49:31;99168.20;;;
79488;BMP180;68949;53.176;18.088;2023-07-02T06:51:58;99151.20;;;
79488;BMP180;68949;53.176;18.088;2023-07-02T06:54:26;99146.60;;;
79488;BMP180;68949;53.176;18.088;2023-07-02T06:56:53;99135.40;;;
79488;BMP180;68949;53.176;18.088;2023-07-02T06:59:21;99117.00;;;
79488;BMP180;68949;53.176;18.088;2023-07-02T07:01:50;99148.20;;;
79488;BMP180;68949;53.176;18.088;2023-07-02T07:04:17;99148.80;;;
79488;BMP180;68949;53.176;18.088;2023-07-02T07:06:43;99154.40;;;
79488;BMP180;68949;53.176;18.088;2023-07-02T07:09:10;99146.20;;;
79488;BMP180;68949;53.176;18.088;2023-07-02T07:11:37;99148.40;;;
79488;BMP180;68949;53.176;18.088;2023-07-02T07:14:04;99151.20;;;
79488;BMP180;68949;53.176;18.088;2023-07-02T07:16:30;99152.80;;;
79488;BMP180;68949;53.176;18.088;2023-07-02T07:18:57;99149.20;;;
79488;BMP180;68949;53.176;18.088;2023-07-02T07:21:24;99153.80;;;
79488;BMP180;68949;53.176;18.088;2023-07-02T07:23:51;99165.80;;;
79488;BMP180;68949;53.176;18.088;2023-07-02T07:26:17;99145.80;;;
79488;BMP180;68949;53.176;18.088;2023-07-02T07:28:44;99154.40;;;
79488;BMP180;68949;53.176;18.088;2023-07-02T07:31:11;99151.80;;;
79488;BMP180;68949;53.176;18.088;2023-07-02T07:33:37;99145.00;;;
79488;BMP180;68949;53.176;18.088;2023-07-02T07:36:04;99150.60;;;
79488;BMP180;68949;53.176;18.088;2023-07-02T07:38:31;99138.40;;;
79488;BMP180;68949;53.176;18.088;2023-07-02T07:40:57;99132.60;;;
79488;BMP180;68949;53.176;18.088;2023-07-02T07:43:24;99130.20;;;
79488;BMP180;68949;53.176;18.088;2023-07-02T07:45:51;99121.80;;;
79488;BMP180;68949;53.176;18.088;2023-07-02T07:48:17;99129.60;;;
79488;BMP180;68949;53.176;18.088;2023-07-02T07:50:44;99132.60;;;
79488;BMP180;68949;53.176;18.088;2023-07-02T07:53:11;99147.60;;;
79488;BMP180;68949;53.176;18.088;2023-07-02T07:55:38;99134.20;;;
79488;BMP180;68949;53.176;18.088;2023-07-02T07:58:04;99126.20;;;
79488;BMP180;68949;53.176;18.088;2023-07-02T08:00:31;99132.20;;;
79488;BMP180;68949;53.176;18.088;2023-07-02T08:02:58;99120.60;;;
79488;BMP180;68949;53.176;18.088;2023-07-02T08:05:26;99147.00;;;
79488;BMP180;68949;53.176;18.088;2023-07-02T08:07:53;99139.80;;;
79488;BMP180;68949;53.176;18.088;2023-07-02T08:10:23;99139.40;;;
79488;BMP180;68949;53.176;18.088;2023-07-02T08:12:51;99137.80;;;
79488;BMP180;68949;53.176;18.088;2023-07-02T08:15:21;99117.80;;;
79488;BMP180;68949;53.176;18.088;2023-07-02T08:17:48;99138.00;;;
79488;BMP180;68949;53.176;18.088;2023-07-02T08:20:15;99126.60;;;
79488;BMP180;68949;53.176;18.088;2023-07-02T08:22:43;99129.00;;;
79488;BMP180;68949;53.176;18.088;2023-07-02T08:25:10;99126.40;;;
79488;BMP180;68949;53.176;18.088;2023-07-02T08:27:37;99110.40;;;
79488;BMP180;68949;53.176;18.088;2023-07-02T08:30:05;99123.60;;;
79488;BMP180;68949;53.176;18.088;2023-07-02T08:32:31;99095.80;;;
79488;BMP180;68949;53.176;18.088;2023-07-02T08:34:59;99119.00;;;
79488;BMP180;68949;53.176;18.088;2023-07-02T08:37:26;99109.20;;;
79488;BMP180;68949;53.176;18.088;2023-07-02T08:39:52;99099.20;;;
79488;BMP180;68949;53.176;18.088;2023-07-02T08:42:19;99102.00;;;
79488;BMP180;68949;53.176;18.088;2023-07-02T08:44:47;99080.80;;;
79488;BMP180;68949;53.176;18.088;2023-07-02T08:47:15;99095.40;;;
79488;BMP180;68949;53.176;18.088;2023-07-02T08:49:42;99085.80;;;
79488;BMP180;68949;53.176;18.088;2023-07-02T08:52:09;99082.80;;;
79488;BMP180;68949;53.176;18.088;2023-07-02T08:54:36;99091.00;;;
79488;BMP180;68949;53.176;18.088;2023-07-02T08:57:04;99085.00;;;
79488;BMP180;68949;53.176;18.088;2023-07-02T08:59:32;99090.00;;;
79488;BMP180;68949;53.176;18.088;2023-07-02T09:01:58;99088.40;;;
79488;BMP180;68949;53.176;18.088;2023-07-02T09:04:26;99096.00;;;
79488;BMP180;68949;53.176;18.088;2023-07-02T09:07:07;99098.40;;;
79488;BMP180;68949;53.176;18.088;2023-07-02T09:09:50;99086.00;;;
79488;BMP180;68949;53.176;18.088;2023-07-02T09:12:31;99077.60;;;
79488;BMP180;68949;53.176;18.088;2023-07-02T09:15:04;99071.40;;;
79488;BMP180;68949;53.176;18.088;2023-07-02T09:17:36;99088.60;;;
79488;BMP180;68949;53.176;18.088;2023-07-02T09:20:05;99063.20;;;
79488;BMP180;68949;53.176;18.088;2023-07-02T09:22:35;99072.00;;;
79488;BMP180;68949;53.176;18.088;2023-07-02T09:25:03;99075.20;;;
79488;BMP180;68949;53.176;18.088;2023-07-02T09:27:39;99065.80;;;
79488;BMP180;68949;53.176;18.088;2023-07-02T09:30:12;99045.60;;;
79488;BMP180;68949;53.176;18.088;2023-07-02T09:32:43;99070.20;;;
79488;BMP180;68949;53.176;18.088;2023-07-02T09:35:13;99088.40;;;
79488;BMP180;68949;53.176;18.088;2023-07-02T09:37:45;99074.60;;;
79488;BMP180;68949;53.176;18.088;2023-07-02T09:40:13;99075.40;;;
79488;BMP180;68949;53.176;18.088;2023-07-02T09:42:42;99074.40;;;
79488;BMP180;68949;53.176;18.088;2023-07-02T09:45:13;99074.60;;;
79488;BMP180;68949;53.176;18.088;2023-07-02T09:47:47;99077.20;;;
79488;BMP180;68949;53.176;18.088;2023-07-02T09:50:17;99082.00;;;
79488;BMP180;68949;53.176;18.088;2023-07-02T09:52:45;99067.00;;;
79488;BMP180;68949;53.176;18.088;2023-07-02T09:55:14;99086.00;;;
79488;BMP180;68949;53.176;18.088;2023-07-02T09:57:44;99078.60;;;
79488;BMP180;68949;53.176;18.088;2023-07-02T10:00:14;99064.80;;;
79488;BMP180;68949;53.176;18.088;2023-07-02T10:02:41;99053.60;;;
79488;BMP180;68949;53.176;18.088;2023-07-02T10:05:29;99076.80;;;
79488;BMP180;68949;53.176;18.088;2023-07-02T10:07:58;99079.00;;;
79488;BMP180;68949;53.176;18.088;2023-07-02T10:10:30;99066.80;;;
79488;BMP180;68949;53.176;18.088;2023-07-02T10:12:58;99082.40;;;
79488;BMP180;68949;53.176;18.088;2023-07-02T10:15:29;99081.60;;;
79488;BMP180;68949;53.176;18.088;2023-07-02T10:18:02;99076.80;;;
79488;BMP180;68949;53.176;18.088;2023-07-02T10:20:39;99080.20;;;
79488;BMP180;68949;53.176;18.088;2023-07-02T10:23:09;99092.20;;;
79488;BMP180;68949;53.176;18.088;2023-07-02T10:25:38;99109.00;;;
79488;BMP180;68949;53.176;18.088;2023-07-02T10:28:19;99092.20;;;
79488;BMP180;68949;53.176;18.088;2023-07-02T10:30:48;99089.00;;;
79488;BMP180;68949;53.176;18.088;2023-07-02T10:33:17;99101.40;;;
79488;BMP180;68949;53.176;18.088;2023-07-02T10:35:46;99107.40;;;
79488;BMP180;68949;53.176;18.088;2023-07-02T10:38:21;99094.60;;;
79488;BMP180;68949;53.176;18.088;2023-07-02T10:40:59;99089.00;;;
79488;BMP180;68949;53.176;18.088;2023-07-02T10:43:31;99094.20;;;
79488;BMP180;68949;53.176;18.088;2023-07-02T10:45:59;99093.40;;;
79488;BMP180;68949;53.176;18.088;2023-07-02T10:48:27;99108.40;;;
79488;BMP180;68949;53.176;18.088;2023-07-02T10:50:54;99083.60;;;
79488;BMP180;68949;53.176;18.088;2023-07-02T10:53:21;99069.20;;;
79488;BMP180;68949;53.176;18.088;2023-07-02T10:55:56;99082.80;;;
79488;BMP180;68949;53.176;18.088;2023-07-02T10:58:24;99070.80;;;
79488;BMP180;68949;53.176;18.088;2023-07-02T11:00:51;99071.00;;;
79488;BMP180;68949;53.176;18.088;2023-07-02T11:03:24;99071.20;;;
79488;BMP180;68949;53.176;18.088;2023-07-02T11:05:54;99074.00;;;
79488;BMP180;68949;53.176;18.088;2023-07-02T11:08:21;99071.60;;;
79488;BMP180;68949;53.176;18.088;2023-07-02T11:10:50;99071.60;;;
79488;BMP180;68949;53.176;18.088;2023-07-02T11:13:19;99082.20;;;
79488;BMP180;68949;53.176;18.088;2023-07-02T11:15:47;99095.20;;;
79488;BMP180;68949;53.176;18.088;2023-07-02T11:18:18;99089.00;;;
79488;BMP180;68949;53.176;18.088;2023-07-02T11:20:49;99091.60;;;
79488;BMP180;68949;53.176;18.088;2023-07-02T11:23:24;99101.40;;;
79488;BMP180;68949;53.176;18.088;2023-07-02T11:26:02;99086.80;;;
79488;BMP180;68949;53.176;18.088;2023-07-02T11:28:31;99084.60;;;
79488;BMP180;68949;53.176;18.088;2023-07-02T11:30:59;99089.00;;;
79488;BMP180;68949;53.176;18.088;2023-07-02T11:33:38;99093.40;;;
79488;BMP180;68949;53.176;18.088;2023-07-02T11:36:06;99086.60;;;
79488;BMP180;68949;53.176;18.088;2023-07-02T11:38:36;99113.60;;;
79488;BMP180;68949;53.176;18.088;2023-07-02T11:41:04;99083.00;;;
79488;BMP180;68949;53.176;18.088;2023-07-02T11:43:31;99083.20;;;
79488;BMP180;68949;53.176;18.088;2023-07-02T11:45:58;99094.60;;;
79488;BMP180;68949;53.176;18.088;2023-07-02T11:48:25;99098.20;;;
79488;BMP180;68949;53.176;18.088;2023-07-02T11:50:52;99116.00;;;
79488;BMP180;68949;53.176;18.088;2023-07-02T11:53:19;99097.20;;;
79488;BMP180;68949;53.176;18.088;2023-07-02T11:55:45;99100.20;;;
79488;BMP180;68949;53.176;18.088;2023-07-02T11:58:12;99095.60;;;
79488;BMP180;68949;53.176;18.088;2023-07-02T12:00:39;99105.80;;;
79488;BMP180;68949;53.176;18.088;2023-07-02T12:03:06;99091.20;;;
79488;BMP180;68949;53.176;18.088;2023-07-02T12:05:33;99095.00;;;
79488;BMP180;68949;53.176;18.088;2023-07-02T12:08:02;99104.20;;;
79488;BMP180;68949;53.176;18.088;2023-07-02T12:10:29;99091.20;;;
79488;BMP180;68949;53.176;18.088;2023-07-02T12:12:56;99101.00;;;
79488;BMP180;68949;53.176;18.088;2023-07-02T12:15:22;99097.60;;;
79488;BMP180;68949;53.176;18.088;2023-07-02T12:17:49;99108.60;;;
79488;BMP180;68949;53.176;18.088;2023-07-02T12:20:15;99098.80;;;
79488;BMP180;68949;53.176;18.088;2023-07-02T12:22:42;99102.60;;;
79488;BMP180;68949;53.176;18.088;2023-07-02T12:25:10;99105.00;;;
79488;BMP180;68949;53.176;18.088;2023-07-02T12:27:37;99119.80;;;
79488;BMP180;68949;53.176;18.088;2023-07-02T12:30:06;99134.40;;;
79488;BMP180;68949;53.176;18.088;2023-07-02T12:32:32;99114.20;;;
79488;BMP180;68949;53.176;18.088;2023-07-02T12:34:59;99121.80;;;
79488;BMP180;68949;53.176;18.088;2023-07-02T12:37:26;99122.60;;;
79488;BMP180;68949;53.176;18.088;2023-07-02T12:39:53;99133.60;;;
79488;BMP180;68949;53.176;18.088;2023-07-02T12:42:19;99139.40;;;
79488;BMP180;68949;53.176;18.088;2023-07-02T12:44:46;99143.80;;;
79488;BMP180;68949;53.176;18.088;2023-07-02T12:47:13;99142.40;;;
79488;BMP180;68949;53.176;18.088;2023-07-02T12:49:40;99156.40;;;
79488;BMP180;68949;53.176;18.088;2023-07-02T12:52:07;99149.20;;;
79488;BMP180;68949;53.176;18.088;2023-07-02T12:54:34;99132.20;;;
79488;BMP180;68949;53.176;18.088;2023-07-02T12:57:01;99133.80;;;
79488;BMP180;68949;53.176;18.088;2023-07-02T12:59:28;99151.00;;;
79488;BMP180;68949;53.176;18.088;2023-07-02T13:01:55;99152.40;;;
79488;BMP180;68949;53.176;18.088;2023-07-02T13:04:23;99166.60;;;
79488;BMP180;68949;53.176;18.088;2023-07-02T13:06:50;99145.00;;;
79488;BMP180;68949;53.176;18.088;2023-07-02T13:09:20;99142.40;;;
79488;BMP180;68949;53.176;18.088;2023-07-02T13:11:47;99136.80;;;
79488;BMP180;68949;53.176;18.088;2023-07-02T13:14:14;99141.00;;;
79488;BMP180;68949;53.176;18.088;2023-07-02T13:16:42;99156.60;;;
79488;BMP180;68949;53.176;18.088;2023-07-02T13:19:09;99153.00;;;
79488;BMP180;68949;53.176;18.088;2023-07-02T13:21:37;99157.20;;;
79488;BMP180;68949;53.176;18.088;2023-07-02T13:24:04;99161.80;;;
79488;BMP180;68949;53.176;18.088;2023-07-02T13:26:31;99162.20;;;
79488;BMP180;68949;53.176;18.088;2023-07-02T13:28:58;99154.40;;;
79488;BMP180;68949;53.176;18.088;2023-07-02T13:31:25;99155.20;;;
79488;BMP180;68949;53.176;18.088;2023-07-02T13:33:52;99170.40;;;
79488;BMP180;68949;53.176;18.088;2023-07-02T13:36:21;99176.40;;;
79488;BMP180;68949;53.176;18.088;2023-07-02T13:38:48;99171.60;;;
79488;BMP180;68949;53.176;18.088;2023-07-02T13:41:15;99175.20;;;
79488;BMP180;68949;53.176;18.088;2023-07-02T13:43:42;99179.40;;;
79488;BMP180;68949;53.176;18.088;2023-07-02T13:46:08;99189.80;;;
79488;BMP180;68949;53.176;18.088;2023-07-02T13:48:35;99180.60;;;
79488;BMP180;68949;53.176;18.088;2023-07-02T13:51:02;99188.00;;;
79488;BMP180;68949;53.176;18.088;2023-07-02T13:53:28;99187.80;;;
79488;BMP180;68949;53.176;18.088;2023-07-02T13:55:55;99185.40;;;
79488;BMP180;68949;53.176;18.088;2023-07-02T13:58:22;99197.20;;;
79488;BMP180;68949;53.176;18.088;2023-07-02T14:00:49;99186.60;;;
79488;BMP180;68949;53.176;18.088;2023-07-02T14:03:16;99191.60;;;
79488;BMP180;68949;53.176;18.088;2023-07-02T14:05:43;99192.00;;;
79488;BMP180;68949;53.176;18.088;2023-07-02T14:08:10;99203.40;;;
79488;BMP180;68949;53.176;18.088;2023-07-02T14:10:36;99193.60;;;
79488;BMP180;68949;53.176;18.088;2023-07-02T14:13:03;99202.80;;;
79488;BMP180;68949;53.176;18.088;2023-07-02T14:15:30;99212.60;;;
79488;BMP180;68949;53.176;18.088;2023-07-02T14:17:57;99220.00;;;
79488;BMP180;68949;53.176;18.088;2023-07-02T14:20:24;99220.20;;;
79488;BMP180;68949;53.176;18.088;2023-07-02T14:22:50;99223.20;;;
79488;BMP180;68949;53.176;18.088;2023-07-02T14:25:17;99212.40;;;
79488;BMP180;68949;53.176;18.088;2023-07-02T14:27:44;99222.00;;;
79488;BMP180;68949;53.176;18.088;2023-07-02T14:30:14;99226.80;;;
79488;BMP180;68949;53.176;18.088;2023-07-02T14:32:40;99224.00;;;
79488;BMP180;68949;53.176;18.088;2023-07-02T14:35:10;99233.00;;;
79488;BMP180;68949;53.176;18.088;2023-07-02T14:37:36;99231.60;;;
79488;BMP180;68949;53.176;18.088;2023-07-02T14:40:04;99227.60;;;
79488;BMP180;68949;53.176;18.088;2023-07-02T14:42:30;99215.00;;;
79488;BMP180;68949;53.176;18.088;2023-07-02T14:44:57;99218.80;;;
79488;BMP180;68949;53.176;18.088;2023-07-02T14:47:24;99227.40;;;
79488;BMP180;68949;53.176;18.088;2023-07-02T14:49:51;99226.60;;;
79488;BMP180;68949;53.176;18.088;2023-07-02T14:52:17;99216.80;;;
79488;BMP180;68949;53.176;18.088;2023-07-02T14:54:45;99222.00;;;
79488;BMP180;68949;53.176;18.088;2023-07-02T14:57:12;99226.00;;;
79488;BMP180;68949;53.176;18.088;2023-07-02T14:59:39;99223.20;;;
79488;BMP180;68949;53.176;18.088;2023-07-02T15:02:05;99226.80;;;
79488;BMP180;68949;53.176;18.088;2023-07-02T15:04:32;99240.60;;;